sensor_id;sensor_type;location;lat;lon;timestamp;temperature;humidity
25688;DHT22;17407;51.120;3.702;2023-04-15T06:03:20;11.30;99.90
25688;DHT22;17407;51.120;3.702;2023-04-15T06:05:47;11.30;99.90
25688;DHT22;17407;51.120;3.702;2023-04-15T06:08:12;11.30;99.90
25688;DHT22;17407;51.120;3.702;2023-04-15T06:10:38;11.30;99.90
25688;DHT22;17407;51.120;3.702;2023-04-15T06:13:04;11.30;99.90
25688;DHT22;17407;51.120;3.702;2023-04-15T06:15:30;11.30;99.90
25688;DHT22;17407;51.120;3.702;2023-04-15T06:17:56;11.40;99.90
25688;DHT22;17407;51.120;3.702;2023-04-15T06:20:22;11.40;99.90
25688;DHT22;17407;51.120;3.702;2023-04-15T06:22:48;11.40;99.90
25688;DHT22;17407;51.120;3.702;2023-04-15T06:25:14;11.30;99.90
25688;DHT22;17407;51.120;3.702;2023-04-15T06:27:40;11.20;99.90
25688;DHT22;17407;51.120;3.702;2023-04-15T06:30:06;11.30;99.90
25688;DHT22;17407;51.120;3.702;2023-04-15T06:32:32;11.50;99.90
25688;DHT22;17407;51.120;3.702;2023-04-15T06:34:57;11.60;99.90
25688;DHT22;17407;51.120;3.702;2023-04-15T06:37:23;11.60;99.90
25688;DHT22;17407;51.120;3.702;2023-04-15T06:39:49;11.60;99.90
25688;DHT22;17407;51.120;3.702;2023-04-15T06:42:14;11.60;99.90
25688;DHT22;17407;51.120;3.702;2023-04-15T06:44:40;11.60;99.90
25688;DHT22;17407;51.120;3.702;2023-04-15T06:47:06;11.60;99.90
25688;DHT22;17407;51.120;3.702;2023-04-15T06:49:33;11.50;99.90
25688;DHT22;17407;51.120;3.702;2023-04-15T06:51:59;11.40;99.90
25688;DHT22;17407;51.120;3.702;2023-04-15T06:54:25;11.60;99.90
25688;DHT22;17407;51.120;3.702;2023-04-15T06:56:51;11.80;99.90
25688;DHT22;17407;51.120;3.702;2023-04-15T06:59:17;11.90;99.90
25688;DHT22;17407;51.120;3.702;2023-04-15T07:01:43;11.90;99.90
25688;DHT22;17407;51.120;3.702;2023-04-15T07:04:09;11.90;99.90
25688;DHT22;17407;51.120;3.702;2023-04-15T07:06:35;11.90;99.90
25688;DHT22;17407;51.120;3.702;2023-04-15T07:09:01;11.90;99.90
25688;DHT22;17407;51.120;3.702;2023-04-15T07:11:29;11.90;99.90
25688;DHT22;17407;51.120;3.702;2023-04-15T07:13:56;11.80;99.90
25688;DHT22;17407;51.120;3.702;2023-04-15T07:16:22;11.80;99.90
25688;DHT22;17407;51.120;3.702;2023-04-15T07:18:47;11.90;99.90
25688;DHT22;17407;51.120;3.702;2023-04-15T07:21:13;12.10;99.90
25688;DHT22;17407;51.120;3.702;2023-04-15T07:23:39;12.20;99.90
25688;DHT22;17407;51.120;3.702;2023-04-15T07:26:05;12.20;99.90
25688;DHT22;17407;51.120;3.702;2023-04-15T07:28:30;12.10;99.90
25688;DHT22;17407;51.120;3.702;2023-04-15T07:30:56;12.00;99.90
25688;DHT22;17407;51.120;3.702;2023-04-15T07:33:22;11.80;99.90
25688;DHT22;17407;51.120;3.702;2023-04-15T07:35:48;11.90;99.90
25688;DHT22;17407;51.120;3.702;2023-04-15T07:38:13;11.90;99.90
25688;DHT22;17407;51.120;3.702;2023-04-15T07:40:39;11.90;99.90
25688;DHT22;17407;51.120;3.702;2023-04-15T07:43:05;11.90;99.90
25688;DHT22;17407;51.120;3.702;2023-04-15T07:45:33;11.90;99.90
25688;DHT22;17407;51.120;3.702;2023-04-15T07:48:00;11.80;99.90
25688;DHT22;17407;51.120;3.702;2023-04-15T07:50:27;11.90;99.90
25688;DHT22;17407;51.120;3.702;2023-04-15T07:52:52;11.90;99.90
25688;DHT22;17407;51.120;3.702;2023-04-15T07:55:18;12.10;99.90
25688;DHT22;17407;51.120;3.702;2023-04-15T07:57:47;12.20;99.90
25688;DHT22;17407;51.120;3.702;2023-04-15T08:00:14;12.10;99.90
25688;DHT22;17407;51.120;3.702;2023-04-15T08:02:40;12.00;99.90
25688;DHT22;17407;51.120;3.702;2023-04-15T08:05:08;12.00;99.90
25688;DHT22;17407;51.120;3.702;2023-04-15T08:07:36;11.90;99.90
25688;DHT22;17407;51.120;3.702;2023-04-15T08:10:03;12.00;99.90
25688;DHT22;17407;51.120;3.702;2023-04-15T08:12:28;12.00;99.90
25688;DHT22;17407;51.120;3.702;2023-04-15T08:14:54;12.20;99.90
25688;DHT22;17407;51.120;3.702;2023-04-15T08:17:21;12.30;99.90
25688;DHT22;17407;51.120;3.702;2023-04-15T08:19:47;12.50;99.90
25688;DHT22;17407;51.120;3.702;2023-04-15T08:22:14;12.30;99.90
25688;DHT22;17407;51.120;3.702;2023-04-15T08:24:40;12.50;99.90
25688;DHT22;17407;51.120;3.702;2023-04-15T08:27:05;12.60;99.90
25688;DHT22;17407;51.120;3.702;2023-04-15T08:29:32;12.70;99.90
25688;DHT22;17407;51.120;3.702;2023-04-15T08:31:59;12.90;99.90
25688;DHT22;17407;51.120;3.702;2023-04-15T08:34:26;13.00;99.90
25688;DHT22;17407;51.120;3.702;2023-04-15T08:36:52;13.10;99.90
25688;DHT22;17407;51.120;3.702;2023-04-15T08:39:18;13.20;99.90
25688;DHT22;17407;51.120;3.702;2023-04-15T08:41:51;13.20;99.90
25688;DHT22;17407;51.120;3.702;2023-04-15T08:44:17;13.30;99.90
25688;DHT22;17407;51.120;3.702;2023-04-15T08:46:43;13.30;99.90
25688;DHT22;17407;51.120;3.702;2023-04-15T08:49:12;13.30;99.90
25688;DHT22;17407;51.120;3.702;2023-04-15T08:51:39;13.50;99.90
25688;DHT22;17407;51.120;3.702;2023-04-15T08:54:05;13.60;99.90
25688;DHT22;17407;51.120;3.702;2023-04-15T08:56:32;13.50;99.90
25688;DHT22;17407;51.120;3.702;2023-04-15T08:58:58;13.80;99.90
25688;DHT22;17407;51.120;3.702;2023-04-15T09:01:25;13.80;99.90
25688;DHT22;17407;51.120;3.702;2023-04-15T09:03:51;13.90;99.90
25688;DHT22;17407;51.120;3.702;2023-04-15T09:06:20;14.00;99.90
25688;DHT22;17407;51.120;3.702;2023-04-15T09:08:46;14.10;99.90
25688;DHT22;17407;51.120;3.702;2023-04-15T09:11:12;14.20;99.90
25688;DHT22;17407;51.120;3.702;2023-04-15T09:13:38;14.30;99.90
25688;DHT22;17407;51.120;3.702;2023-04-15T09:16:05;14.40;99.90
25688;DHT22;17407;51.120;3.702;2023-04-15T09:18:32;14.50;99.90
25688;DHT22;17407;51.120;3.702;2023-04-15T09:23:31;14.60;99.90
25688;DHT22;17407;51.120;3.702;2023-04-15T09:25:58;14.70;99.90
25688;DHT22;17407;51.120;3.702;2023-04-15T09:28:24;14.70;99.90
25688;DHT22;17407;51.120;3.702;2023-04-15T09:30:57;14.70;99.90
25688;DHT22;17407;51.120;3.702;2023-04-15T09:33:24;14.70;99.90
25688;DHT22;17407;51.120;3.702;2023-04-15T09:36:01;14.70;99.90
25688;DHT22;17407;51.120;3.702;2023-04-15T09:38:28;14.70;99.90
25688;DHT22;17407;51.120;3.702;2023-04-15T09:40:54;14.70;99.90
25688;DHT22;17407;51.120;3.702;2023-04-15T09:43:20;14.60;99.90
25688;DHT22;17407;51.120;3.702;2023-04-15T09:45:53;14.60;99.90
25688;DHT22;17407;51.120;3.702;2023-04-15T09:48:21;14.70;99.90
25688;DHT22;17407;51.120;3.702;2023-04-15T09:50:50;14.60;99.90
25688;DHT22;17407;51.120;3.702;2023-04-15T09:53:22;14.60;99.90
25688;DHT22;17407;51.120;3.702;2023-04-15T09:55:52;14.70;99.90
25688;DHT22;17407;51.120;3.702;2023-04-15T09:58:22;14.70;99.90
25688;DHT22;17407;51.120;3.702;2023-04-15T10:00:50;14.70;99.90
25688;DHT22;17407;51.120;3.702;2023-04-15T10:03:25;14.90;99.90
25688;DHT22;17407;51.120;3.702;2023-04-15T10:05:53;15.10;99.90
25688;DHT22;17407;51.120;3.702;2023-04-15T10:08:25;15.20;99.90
25688;DHT22;17407;51.120;3.702;2023-04-15T10:10:52;15.30;99.90
25688;DHT22;17407;51.120;3.702;2023-04-15T10:13:20;15.40;99.90
25688;DHT22;17407;51.120;3.702;2023-04-15T10:15:56;15.60;99.90
25688;DHT22;17407;51.120;3.702;2023-04-15T10:18:25;15.90;99.90
25688;DHT22;17407;51.120;3.702;2023-04-15T10:20:52;16.20;99.90
25688;DHT22;17407;51.120;3.702;2023-04-15T10:23:19;16.20;99.90
25688;DHT22;17407;51.120;3.702;2023-04-15T10:25:46;16.40;99.90
25688;DHT22;17407;51.120;3.702;2023-04-15T10:28:14;16.50;99.90
25688;DHT22;17407;51.120;3.702;2023-04-15T10:30:42;16.60;99.90
25688;DHT22;17407;51.120;3.702;2023-04-15T10:33:08;16.70;99.90
25688;DHT22;17407;51.120;3.702;2023-04-15T10:35:35;16.80;99.90
25688;DHT22;17407;51.120;3.702;2023-04-15T10:38:01;16.90;99.90
25688;DHT22;17407;51.120;3.702;2023-04-15T10:40:31;17.00;99.90
25688;DHT22;17407;51.120;3.702;2023-04-15T10:43:01;17.20;99.90
25688;DHT22;17407;51.120;3.702;2023-04-15T10:45:32;17.20;99.90
25688;DHT22;17407;51.120;3.702;2023-04-15T10:48:01;17.20;99.90
25688;DHT22;17407;51.120;3.702;2023-04-15T10:50:27;17.30;99.90
25688;DHT22;17407;51.120;3.702;2023-04-15T10:52:55;17.40;99.90
25688;DHT22;17407;51.120;3.702;2023-04-15T10:55:23;17.60;99.90
25688;DHT22;17407;51.120;3.702;2023-04-15T10:57:53;17.80;99.90
25688;DHT22;17407;51.120;3.702;2023-04-15T11:00:20;17.70;99.90
25688;DHT22;17407;51.120;3.702;2023-04-15T11:03:04;17.90;99.90
25688;DHT22;17407;51.120;3.702;2023-04-15T11:05:50;17.90;99.90
25688;DHT22;17407;51.120;3.702;2023-04-15T11:08:16;18.00;99.90
25688;DHT22;17407;51.120;3.702;2023-04-15T11:15:43;18.30;99.90
25688;DHT22;17407;51.120;3.702;2023-04-15T11:20:47;18.20;99.90
25688;DHT22;17407;51.120;3.702;2023-04-15T11:23:17;18.20;99.90
25688;DHT22;17407;51.120;3.702;2023-04-15T11:25:43;18.40;99.90
25688;DHT22;17407;51.120;3.702;2023-04-15T11:28:11;18.60;99.90
25688;DHT22;17407;51.120;3.702;2023-04-15T11:30:38;18.60;99.90
25688;DHT22;17407;51.120;3.702;2023-04-15T11:33:06;18.70;99.40
25688;DHT22;17407;51.120;3.702;2023-04-15T11:35:36;18.90;99.90
25688;DHT22;17407;51.120;3.702;2023-04-15T11:38:03;18.80;99.90
25688;DHT22;17407;51.120;3.702;2023-04-15T11:40:30;18.50;99.90
25688;DHT22;17407;51.120;3.702;2023-04-15T11:45:29;18.60;99.90
25688;DHT22;17407;51.120;3.702;2023-04-15T11:47:54;18.60;99.90
25688;DHT22;17407;51.120;3.702;2023-04-15T11:50:29;18.60;99.90
25688;DHT22;17407;51.120;3.702;2023-04-15T11:52:56;18.70;99.90
25688;DHT22;17407;51.120;3.702;2023-04-15T11:55:23;18.50;99.90
25688;DHT22;17407;51.120;3.702;2023-04-15T11:58:08;18.50;99.90
25688;DHT22;17407;51.120;3.702;2023-04-15T12:00:34;18.70;99.90
25688;DHT22;17407;51.120;3.702;2023-04-15T12:06:19;18.80;99.90
25688;DHT22;17407;51.120;3.702;2023-04-15T12:08:59;18.80;99.90
25688;DHT22;17407;51.120;3.702;2023-04-15T12:14:33;19.00;99.90
25688;DHT22;17407;51.120;3.702;2023-04-15T12:17:00;18.90;99.90
25688;DHT22;17407;51.120;3.702;2023-04-15T12:19:37;18.70;99.90
25688;DHT22;17407;51.120;3.702;2023-04-15T12:22:12;18.70;99.90
25688;DHT22;17407;51.120;3.702;2023-04-15T12:24:40;18.60;99.90
25688;DHT22;17407;51.120;3.702;2023-04-15T12:27:10;18.80;99.40
25688;DHT22;17407;51.120;3.702;2023-04-15T12:29:37;18.70;99.90
25688;DHT22;17407;51.120;3.702;2023-04-15T12:32:10;18.70;99.50
25688;DHT22;17407;51.120;3.702;2023-04-15T12:34:41;18.70;99.20
25688;DHT22;17407;51.120;3.702;2023-04-15T12:37:09;18.80;99.90
25688;DHT22;17407;51.120;3.702;2023-04-15T12:39:40;19.00;99.90
25688;DHT22;17407;51.120;3.702;2023-04-15T12:42:06;19.10;99.90
25688;DHT22;17407;51.120;3.702;2023-04-15T12:44:33;19.20;99.90
25688;DHT22;17407;51.120;3.702;2023-04-15T12:46:59;19.30;99.90
25688;DHT22;17407;51.120;3.702;2023-04-15T12:49:25;19.40;99.90
25688;DHT22;17407;51.120;3.702;2023-04-15T12:51:53;19.30;98.10
25688;DHT22;17407;51.120;3.702;2023-04-15T12:54:20;19.40;99.30
25688;DHT22;17407;51.120;3.702;2023-04-15T12:56:46;19.50;96.00
25688;DHT22;17407;51.120;3.702;2023-04-15T12:59:13;19.50;97.90
25688;DHT22;17407;51.120;3.702;2023-04-15T13:01:39;19.40;97.80
25688;DHT22;17407;51.120;3.702;2023-04-15T13:04:05;19.30;97.90
25688;DHT22;17407;51.120;3.702;2023-04-15T13:06:31;19.20;99.90
25688;DHT22;17407;51.120;3.702;2023-04-15T13:08:58;19.10;97.80
25688;DHT22;17407;51.120;3.702;2023-04-15T13:11:24;19.10;98.10
25688;DHT22;17407;51.120;3.702;2023-04-15T13:13:50;19.00;98.00
25688;DHT22;17407;51.120;3.702;2023-04-15T13:16:17;18.90;97.70
25688;DHT22;17407;51.120;3.702;2023-04-15T13:18:43;19.00;99.40
25688;DHT22;17407;51.120;3.702;2023-04-15T13:21:11;19.10;97.00
25688;DHT22;17407;51.120;3.702;2023-04-15T13:23:36;19.20;98.10
25688;DHT22;17407;51.120;3.702;2023-04-15T13:26:02;19.50;96.00
25688;DHT22;17407;51.120;3.702;2023-04-15T13:28:28;19.50;99.10
25688;DHT22;17407;51.120;3.702;2023-04-15T13:30:54;19.40;99.90
25688;DHT22;17407;51.120;3.702;2023-04-15T13:33:20;19.40;99.90
25688;DHT22;17407;51.120;3.702;2023-04-15T13:35:46;19.40;99.90
25688;DHT22;17407;51.120;3.702;2023-04-15T13:38:11;19.40;99.90
25688;DHT22;17407;51.120;3.702;2023-04-15T13:40:37;19.40;99.90
25688;DHT22;17407;51.120;3.702;2023-04-15T13:43:02;19.50;99.90
25688;DHT22;17407;51.120;3.702;2023-04-15T13:45:29;19.40;99.90
25688;DHT22;17407;51.120;3.702;2023-04-15T13:47:55;19.20;99.90
25688;DHT22;17407;51.120;3.702;2023-04-15T13:50:22;18.90;99.90
25688;DHT22;17407;51.120;3.702;2023-04-15T13:52:49;18.80;99.90
25688;DHT22;17407;51.120;3.702;2023-04-15T13:55:14;18.80;99.90
25688;DHT22;17407;51.120;3.702;2023-04-15T13:57:40;18.80;99.90
25688;DHT22;17407;51.120;3.702;2023-04-15T14:00:06;18.50;99.90
25688;DHT22;17407;51.120;3.702;2023-04-15T14:02:32;18.70;99.90
